createdAt,value
2017-07-03T00:00:54.485Z,2.70
2017-07-03T00:03:26.828Z,4.00
2017-07-03T00:05:59.201Z,1.93
2017-07-03T00:08:31.498Z,5.10
2017-07-03T00:11:03.881Z,3.60
2017-07-03T00:13:36.158Z,2.30
2017-07-03T00:16:08.737Z,2.23
2017-07-03T00:18:41.047Z,2.03
2017-07-03T00:21:13.337Z,3.00
2017-07-03T00:23:52.790Z,7.10
2017-07-03T00:26:25.359Z,3.90
2017-07-03T00:28:57.818Z,3.90
2017-07-03T00:31:30.201Z,3.33
2017-07-03T00:34:02.569Z,4.80
2017-07-03T00:36:35.057Z,6.63
2017-07-03T00:39:07.423Z,4.47
2017-07-03T00:41:39.820Z,9.73
2017-07-03T00:44:12.169Z,7.30
2017-07-03T00:46:44.553Z,4.87
2017-07-03T00:49:17.031Z,3.13
2017-07-03T00:51:49.449Z,4.63
2017-07-03T00:54:21.766Z,4.73
2017-07-03T00:56:54.253Z,2.87
2017-07-03T00:59:27.556Z,5.60
2017-07-03T01:02:00.323Z,5.83
2017-07-03T01:04:32.697Z,4.47
2017-07-03T01:07:04.677Z,9.33
2017-07-03T01:09:37.021Z,4.33
2017-07-03T01:12:09.407Z,4.50
2017-07-03T01:14:41.770Z,4.33
2017-07-03T01:17:14.268Z,6.13
2017-07-03T01:19:46.757Z,4.90
2017-07-03T01:22:19.155Z,4.80
2017-07-03T01:24:52.397Z,5.57
2017-07-03T01:27:24.823Z,5.90
2017-07-03T01:29:57.250Z,9.70
2017-07-03T01:32:29.540Z,4.00
2017-07-03T01:35:02.450Z,3.47
2017-07-03T01:37:34.236Z,5.70
2017-07-03T01:40:06.685Z,7.37
2017-07-03T01:42:38.989Z,3.90
2017-07-03T01:45:11.285Z,7.77
2017-07-03T01:47:43.689Z,7.97
2017-07-03T01:50:16.443Z,3.03
2017-07-03T01:52:48.505Z,3.13
2017-07-03T01:55:20.830Z,4.10
2017-07-03T01:57:53.205Z,5.37
2017-07-03T02:00:25.601Z,3.53
2017-07-03T02:02:57.972Z,3.77
2017-07-03T02:05:30.364Z,4.97
2017-07-03T02:08:03.678Z,8.33
2017-07-03T02:10:36.452Z,3.77
2017-07-03T02:13:08.944Z,9.53
2017-07-03T02:15:40.859Z,5.53
2017-07-03T02:18:13.196Z,5.17
2017-07-03T02:20:45.361Z,3.17
2017-07-03T02:23:18.761Z,6.37
2017-07-03T02:25:51.183Z,3.50
2017-07-03T02:28:23.526Z,7.90
2017-07-03T02:30:56.083Z,6.27
2017-07-03T02:33:28.353Z,4.23
2017-07-03T02:36:00.681Z,5.77
2017-07-03T02:38:33.484Z,10.83
2017-07-03T02:41:05.713Z,4.30
2017-07-03T02:43:38.041Z,5.23
2017-07-03T02:46:10.526Z,5.30
2017-07-03T02:48:43.822Z,7.87
2017-07-03T02:51:16.421Z,6.53
2017-07-03T02:53:49.421Z,9.03
2017-07-03T02:56:22.028Z,8.47
2017-07-03T02:58:54.495Z,6.43
2017-07-03T03:01:26.895Z,8.20
2017-07-03T03:03:59.250Z,7.70
2017-07-03T03:06:31.968Z,10.70
2017-07-03T03:09:05.040Z,7.17
2017-07-03T03:11:37.492Z,10.73
2017-07-03T03:14:09.791Z,9.60
2017-07-03T03:16:42.272Z,8.50
2017-07-03T03:19:14.657Z,4.77
2017-07-03T03:21:47.128Z,8.20
2017-07-03T03:24:19.485Z,13.80
2017-07-03T03:26:51.852Z,9.47
2017-07-03T03:29:24.349Z,9.90
2017-07-03T03:31:56.781Z,8.10
2017-07-03T03:34:29.113Z,15.57
2017-07-03T03:37:02.013Z,9.90
2017-07-03T03:39:33.957Z,8.17
2017-07-03T03:42:06.345Z,14.37
2017-07-03T03:44:38.781Z,9.10
2017-07-03T03:47:11.359Z,12.50
2017-07-03T03:49:43.834Z,18.73
2017-07-03T03:52:15.888Z,7.33
2017-07-03T03:54:48.365Z,7.90
2017-07-03T03:57:20.647Z,9.60
2017-07-03T04:00:00.174Z,8.70
2017-07-03T04:02:32.596Z,7.40
2017-07-03T04:05:05.449Z,7.30
2017-07-03T04:07:37.540Z,11.73
2017-07-03T04:10:10.907Z,9.00
2017-07-03T04:12:43.411Z,7.47
2017-07-03T04:15:15.869Z,9.63
2017-07-03T04:17:48.232Z,6.93
2017-07-03T04:20:20.620Z,7.30
2017-07-03T04:22:52.979Z,8.17
2017-07-03T04:25:25.413Z,5.10
2017-07-03T04:27:57.737Z,4.70
2017-07-03T04:30:30.111Z,6.97
2017-07-03T04:33:02.572Z,5.80
2017-07-03T04:35:35.056Z,5.80
2017-07-03T04:38:07.734Z,4.20
2017-07-03T04:40:40.037Z,5.80
2017-07-03T04:43:12.444Z,9.73
2017-07-03T04:45:44.892Z,7.07
2017-07-03T04:48:17.304Z,6.80
2017-07-03T04:50:49.804Z,8.60
2017-07-03T04:53:22.489Z,3.70
2017-07-03T04:55:55.047Z,3.80
2017-07-03T04:58:27.100Z,6.20
2017-07-03T05:01:00.322Z,6.53
2017-07-03T05:03:32.989Z,7.63
2017-07-03T05:06:05.366Z,7.00
2017-07-03T05:08:37.844Z,4.23
2017-07-03T05:11:10.272Z,5.93
2017-07-03T05:13:42.612Z,4.10
2017-07-03T05:16:15.189Z,7.80
2017-07-03T05:18:47.648Z,5.67
2017-07-03T05:21:20.037Z,4.33
2017-07-03T05:23:52.500Z,11.03
2017-07-03T05:26:24.908Z,5.83
2017-07-03T05:28:57.481Z,4.50
2017-07-03T05:31:29.739Z,5.67
2017-07-03T05:34:02.159Z,5.43
2017-07-03T05:36:35.339Z,3.57
2017-07-03T05:39:07.949Z,5.20
2017-07-03T05:41:40.281Z,3.80
2017-07-03T05:44:18.775Z,3.37
2017-07-03T05:46:51.267Z,6.17
2017-07-03T05:49:23.665Z,5.30
2017-07-03T05:51:56.046Z,5.40
2017-07-03T05:54:28.497Z,4.67
2017-07-03T05:57:00.887Z,4.10
2017-07-03T05:59:33.679Z,4.00
2017-07-03T06:02:05.923Z,4.20
2017-07-03T06:04:38.677Z,5.67
2017-07-03T06:07:10.944Z,4.10
2017-07-03T06:09:43.305Z,2.80
2017-07-03T06:12:15.709Z,4.53
2017-07-03T06:14:48.120Z,4.90
2017-07-03T06:17:20.566Z,5.07
2017-07-03T06:19:53.022Z,5.57
2017-07-03T06:22:26.501Z,4.57
2017-07-03T06:24:58.864Z,4.90
2017-07-03T06:27:31.309Z,4.00
2017-07-03T06:30:04.045Z,4.30
2017-07-03T06:32:36.342Z,6.80
2017-07-03T06:35:09.205Z,4.53
2017-07-03T06:37:41.205Z,5.60
2017-07-03T06:40:13.540Z,5.63
2017-07-03T06:42:45.926Z,3.23
2017-07-03T06:45:18.291Z,4.30
2017-07-03T06:47:50.787Z,4.27
2017-07-03T06:50:23.124Z,6.97
2017-07-03T06:52:55.641Z,3.80
2017-07-03T06:55:27.989Z,3.43
2017-07-03T06:58:00.375Z,5.07
2017-07-03T07:00:32.845Z,3.00
2017-07-03T07:03:06.230Z,4.27
2017-07-03T07:05:38.620Z,5.90
2017-07-03T07:08:10.915Z,4.43
2017-07-03T07:10:43.558Z,2.30
2017-07-03T07:13:15.740Z,3.50
2017-07-03T07:15:48.205Z,4.73
2017-07-03T07:18:21.488Z,2.57
2017-07-03T07:20:54.068Z,4.13
2017-07-03T07:23:26.584Z,2.73
2017-07-03T07:25:58.928Z,2.73
2017-07-03T07:28:31.345Z,7.20
2017-07-03T07:31:03.744Z,3.50
2017-07-03T07:33:35.986Z,2.00
2017-07-03T07:36:08.325Z,3.23
2017-07-03T07:38:40.680Z,2.67
2017-07-03T07:41:12.989Z,2.83
2017-07-03T07:43:45.465Z,2.80
2017-07-03T07:46:17.908Z,2.73
2017-07-03T07:48:50.390Z,2.83
2017-07-03T07:51:22.738Z,2.20
2017-07-03T07:54:02.221Z,3.13
2017-07-03T07:56:34.556Z,1.93
2017-07-03T07:59:07.176Z,2.70
2017-07-03T08:01:39.262Z,2.53
2017-07-03T08:04:11.606Z,2.00
2017-07-03T08:06:43.940Z,2.57
2017-07-03T08:09:17.429Z,2.33
2017-07-03T08:11:49.636Z,2.40
2017-07-03T08:14:22.033Z,2.30
2017-07-03T08:16:54.399Z,2.80
2017-07-03T08:19:26.804Z,3.73
2017-07-03T08:21:59.128Z,2.13
2017-07-03T08:24:32.436Z,2.30
2017-07-03T08:27:04.812Z,2.83
2017-07-03T08:29:37.229Z,1.97
2017-07-03T08:32:09.750Z,2.23
2017-07-03T08:34:42.240Z,2.13
2017-07-03T08:37:14.563Z,2.07
2017-07-03T08:39:46.992Z,3.13
2017-07-03T08:42:19.341Z,2.73
2017-07-03T08:44:52.781Z,3.07
2017-07-03T08:47:25.215Z,2.57
2017-07-03T08:49:57.641Z,2.73
2017-07-03T08:52:30.072Z,6.00
2017-07-03T08:55:02.367Z,3.03
2017-07-03T08:57:34.802Z,2.67
2017-07-03T09:00:07.222Z,1.80
2017-07-03T09:02:39.533Z,2.60
2017-07-03T09:05:11.960Z,1.67
2017-07-03T09:07:44.400Z,1.80
2017-07-03T09:10:16.765Z,2.70
2017-07-03T09:12:49.465Z,1.10
2017-07-03T09:15:21.645Z,2.63
2017-07-03T09:17:54.180Z,1.80
2017-07-03T09:20:27.907Z,2.00
2017-07-03T09:22:59.912Z,3.13
2017-07-03T09:25:32.327Z,3.03
2017-07-03T09:28:04.706Z,2.13
2017-07-03T09:30:37.019Z,2.07
2017-07-03T09:33:09.501Z,2.23
2017-07-03T09:35:41.919Z,1.53
2017-07-03T09:38:14.306Z,2.33
2017-07-03T09:40:46.704Z,1.87
2017-07-03T09:43:19.176Z,2.80
2017-07-03T09:45:51.889Z,2.63
2017-07-03T09:48:23.981Z,3.37
2017-07-03T09:50:56.345Z,3.03
2017-07-03T09:53:29.777Z,3.23
2017-07-03T09:56:03.112Z,1.70
2017-07-03T09:58:35.872Z,3.33
2017-07-03T10:01:08.051Z,5.10
2017-07-03T10:03:40.500Z,1.60
2017-07-03T10:06:13.087Z,2.20
2017-07-03T10:08:45.465Z,5.43
2017-07-03T10:11:17.977Z,4.70
2017-07-03T10:13:50.320Z,3.83
2017-07-03T10:16:23.388Z,2.40
2017-07-03T10:18:56.067Z,4.20
2017-07-03T10:21:28.493Z,1.83
2017-07-03T10:24:00.941Z,1.53
2017-07-03T10:26:33.736Z,5.83
2017-07-03T10:29:05.865Z,3.33
2017-07-03T10:31:38.177Z,1.80
2017-07-03T10:34:10.522Z,4.97
2017-07-03T10:36:42.859Z,1.93
2017-07-03T10:39:15.252Z,1.30
2017-07-03T10:41:47.628Z,3.90
2017-07-03T10:44:20.028Z,3.03
2017-07-03T10:46:52.531Z,4.43
2017-07-03T10:49:24.874Z,3.03
2017-07-03T10:51:57.280Z,1.40
2017-07-03T10:54:29.936Z,2.77
2017-07-03T10:57:01.935Z,1.53
2017-07-03T10:59:34.950Z,3.40
2017-07-03T11:02:06.898Z,2.07
2017-07-03T11:04:39.236Z,1.30
2017-07-03T11:07:11.801Z,2.40
2017-07-03T11:09:44.209Z,2.20
2017-07-03T11:12:16.598Z,3.23
2017-07-03T11:14:48.844Z,3.97
2017-07-03T11:17:21.253Z,2.53
2017-07-03T11:19:53.635Z,3.03
2017-07-03T11:22:26.073Z,2.53
2017-07-03T11:24:58.437Z,5.30
2017-07-03T11:27:30.705Z,2.60
2017-07-03T11:30:03.156Z,3.70
2017-07-03T11:32:35.672Z,3.60
2017-07-03T11:35:08.080Z,4.47
2017-07-03T11:37:40.436Z,4.63
2017-07-03T11:40:12.805Z,3.97
2017-07-03T11:42:45.347Z,3.13
2017-07-03T11:45:17.623Z,3.97
2017-07-03T11:47:49.972Z,3.73
2017-07-03T11:50:23.272Z,3.70
2017-07-03T11:52:55.717Z,5.47
2017-07-03T11:55:28.007Z,3.00
2017-07-03T11:58:00.418Z,2.80
2017-07-03T12:00:33.024Z,3.63
2017-07-03T12:03:05.201Z,2.97
2017-07-03T12:05:37.893Z,5.27
2017-07-03T12:08:10.034Z,2.50
2017-07-03T12:10:42.421Z,3.90
2017-07-03T12:13:14.864Z,2.37
2017-07-03T12:15:47.216Z,3.40
2017-07-03T12:18:19.703Z,2.80
2017-07-03T12:20:52.107Z,2.80
2017-07-03T12:23:24.472Z,3.93
2017-07-03T12:25:56.868Z,5.70
2017-07-03T12:28:30.250Z,2.27
2017-07-03T12:31:02.622Z,2.20
2017-07-03T12:33:35.033Z,2.00
2017-07-03T12:36:07.253Z,2.83
2017-07-03T12:38:39.732Z,3.87
2017-07-03T12:41:12.056Z,7.93
2017-07-03T12:43:44.378Z,3.20
2017-07-03T12:46:16.681Z,1.70
2017-07-03T12:48:49.399Z,2.20
2017-07-03T12:51:21.477Z,2.67
2017-07-03T12:53:53.771Z,2.33
2017-07-03T12:56:26.122Z,4.50
2017-07-03T12:58:59.551Z,2.23
2017-07-03T13:01:32.009Z,4.07
2017-07-03T13:04:04.378Z,2.77
2017-07-03T13:06:36.728Z,3.60
2017-07-03T13:09:16.192Z,3.77
2017-07-03T13:11:48.648Z,4.43
2017-07-03T13:14:21.201Z,3.80
2017-07-03T13:16:53.453Z,3.00
2017-07-03T13:19:26.483Z,3.93
2017-07-03T13:21:59.221Z,3.27
2017-07-03T13:24:31.647Z,4.03
2017-07-03T13:27:04.154Z,1.50
2017-07-03T13:29:36.533Z,3.93
2017-07-03T13:32:09.194Z,2.60
2017-07-03T13:34:41.344Z,3.07
2017-07-03T13:37:13.715Z,3.63
2017-07-03T13:39:46.526Z,4.30
2017-07-03T13:42:18.611Z,3.50
2017-07-03T13:44:51.045Z,4.80
2017-07-03T13:47:23.477Z,3.03
2017-07-03T13:49:55.811Z,2.40
2017-07-03T13:52:28.208Z,4.17
2017-07-03T13:55:00.633Z,4.30
2017-07-03T13:57:33.113Z,2.43
2017-07-03T14:00:05.604Z,3.20
2017-07-03T14:02:38.060Z,3.20
2017-07-03T14:05:10.615Z,5.47
2017-07-03T14:07:43.028Z,2.80
2017-07-03T14:10:15.515Z,2.50
2017-07-03T14:12:47.953Z,3.33
2017-07-03T14:15:20.382Z,1.80
2017-07-03T14:17:52.564Z,3.43
2017-07-03T14:20:24.959Z,3.33
2017-07-03T14:22:57.455Z,1.67
2017-07-03T14:25:29.893Z,3.53
2017-07-03T14:28:02.169Z,2.47
2017-07-03T14:30:34.515Z,2.30
2017-07-03T14:33:06.939Z,4.20
2017-07-03T14:35:39.287Z,1.70
2017-07-03T14:38:11.702Z,1.50
2017-07-03T14:40:44.310Z,1.23
2017-07-03T14:43:16.965Z,4.13
2017-07-03T14:45:49.947Z,2.47
2017-07-03T14:48:22.466Z,2.03
2017-07-03T14:50:55.739Z,1.90
2017-07-03T14:53:28.241Z,2.97
2017-07-03T14:56:00.763Z,2.80
2017-07-03T14:58:33.015Z,2.13
2017-07-03T15:01:06.443Z,2.00
2017-07-03T15:03:38.831Z,1.97
2017-07-03T15:06:11.230Z,1.50
2017-07-03T15:08:43.570Z,2.30
2017-07-03T15:11:16.026Z,2.70
2017-07-03T15:13:48.324Z,2.10
2017-07-03T15:16:20.761Z,2.07
2017-07-03T15:18:53.194Z,2.50
2017-07-03T15:21:25.440Z,4.10
2017-07-03T15:23:57.620Z,1.90
2017-07-03T15:26:29.992Z,2.13
2017-07-03T15:29:02.373Z,3.17
2017-07-03T15:31:34.873Z,3.37
2017-07-03T15:34:07.241Z,6.53
2017-07-03T15:36:39.639Z,3.10
2017-07-03T15:39:11.980Z,5.70
2017-07-03T15:41:44.336Z,2.47
2017-07-03T15:44:16.631Z,4.23
2017-07-03T15:46:48.925Z,4.63
2017-07-03T15:49:21.346Z,3.77
2017-07-03T15:51:54.768Z,2.67
2017-07-03T15:54:27.292Z,2.40
2017-07-03T15:56:59.652Z,2.60
2017-07-03T15:59:31.946Z,2.93
2017-07-03T16:02:05.348Z,2.30
2017-07-03T16:04:37.711Z,5.33
2017-07-03T16:07:10.154Z,4.23
2017-07-03T16:09:42.498Z,3.47
2017-07-03T16:12:14.860Z,2.93
2017-07-03T16:14:47.268Z,3.17
2017-07-03T16:17:19.632Z,3.20
2017-07-03T16:19:52.042Z,6.50
2017-07-03T16:22:24.369Z,3.00
2017-07-03T16:24:56.747Z,4.10
2017-07-03T16:27:30.866Z,2.10
2017-07-03T16:30:03.537Z,3.00
2017-07-03T16:32:35.969Z,3.57
2017-07-03T16:35:08.324Z,4.67
2017-07-03T16:37:41.723Z,2.40
2017-07-03T16:40:14.108Z,2.37
2017-07-03T16:42:46.527Z,2.73
2017-07-03T16:45:18.889Z,3.53
2017-07-03T16:47:52.313Z,2.30
2017-07-03T16:50:24.587Z,2.73
2017-07-03T16:52:56.931Z,2.70
2017-07-03T16:55:29.172Z,4.33
2017-07-03T16:58:01.552Z,2.87
2017-07-03T17:00:33.980Z,2.80
2017-07-03T17:03:06.786Z,5.50
2017-07-03T17:05:38.721Z,2.43
2017-07-03T17:08:11.194Z,3.47
2017-07-03T17:10:43.556Z,3.47
2017-07-03T17:13:17.028Z,2.30
2017-07-03T17:15:49.401Z,3.17
2017-07-03T17:18:22.580Z,3.77
2017-07-03T17:20:55.268Z,3.80
2017-07-03T17:23:27.656Z,4.03
2017-07-03T17:26:00.029Z,6.47
2017-07-03T17:28:32.473Z,4.00
2017-07-03T17:31:04.757Z,3.20
2017-07-03T17:33:37.206Z,4.10
2017-07-03T17:36:09.918Z,4.40
2017-07-03T17:38:41.938Z,4.87
2017-07-03T17:41:14.308Z,5.40
2017-07-03T17:43:46.581Z,4.43
2017-07-03T17:46:19.022Z,4.60
2017-07-03T17:48:52.414Z,4.33
2017-07-03T17:51:24.881Z,4.40
2017-07-03T17:53:57.313Z,6.10
2017-07-03T17:56:29.696Z,4.40
2017-07-03T17:59:02.132Z,5.13
2017-07-03T18:01:34.436Z,4.60
2017-07-03T18:04:06.940Z,5.03
2017-07-03T18:06:39.277Z,6.93
2017-07-03T18:09:12.078Z,5.67
2017-07-03T18:11:44.103Z,5.47
2017-07-03T18:14:16.401Z,5.30
2017-07-03T18:16:48.724Z,5.20
2017-07-03T18:19:21.170Z,5.80
2017-07-03T18:21:53.472Z,5.23
2017-07-03T18:24:25.893Z,5.77
2017-07-03T18:26:58.309Z,5.33
2017-07-03T18:29:30.804Z,5.90
2017-07-03T18:32:03.080Z,5.80
2017-07-03T18:34:35.561Z,9.80
2017-07-03T18:37:07.902Z,9.03
2017-07-03T18:39:40.340Z,6.30
2017-07-03T18:42:12.672Z,5.87
2017-07-03T18:44:45.113Z,7.17
2017-07-03T18:47:17.289Z,6.43
2017-07-03T18:49:49.792Z,6.37
2017-07-03T18:52:22.114Z,7.00
2017-07-03T18:54:55.181Z,6.30
2017-07-03T18:57:27.718Z,8.47
2017-07-03T19:00:00.904Z,9.13
2017-07-03T19:02:33.480Z,7.93
2017-07-03T19:05:05.897Z,8.00
2017-07-03T19:07:38.152Z,8.60
2017-07-03T19:10:10.625Z,9.63
2017-07-03T19:12:42.988Z,9.80
2017-07-03T19:15:15.306Z,10.80
2017-07-03T19:17:47.754Z,10.40
2017-07-03T19:20:22.144Z,12.30
2017-07-03T19:22:54.500Z,8.50
2017-07-03T19:25:33.923Z,9.03
2017-07-03T19:28:06.523Z,16.50
2017-07-03T19:30:38.896Z,8.13
2017-07-03T19:45:56.740Z,8.63
2017-07-03T19:48:28.893Z,7.77
2017-07-03T19:51:01.228Z,8.93
2017-07-03T19:53:33.857Z,8.53
2017-07-03T19:56:05.923Z,10.70
2017-07-03T19:58:38.385Z,12.40
2017-07-03T20:01:10.733Z,8.53
2017-07-03T20:03:43.165Z,8.53
2017-07-03T20:06:15.589Z,11.53
2017-07-03T20:08:48.035Z,12.23
2017-07-03T20:11:21.256Z,15.60
2017-07-03T20:13:53.726Z,15.73
2017-07-03T20:16:26.073Z,11.37
2017-07-03T20:18:59.352Z,7.20
2017-07-03T20:21:31.793Z,12.43
2017-07-03T20:24:04.307Z,11.90
2017-07-03T20:26:36.657Z,10.47
2017-07-03T20:29:09.184Z,11.33
2017-07-03T20:31:41.713Z,7.43
2017-07-03T20:34:13.923Z,11.73
2017-07-03T20:36:46.254Z,12.43
2017-07-03T20:39:18.760Z,8.57
2017-07-03T20:41:51.115Z,11.20
2017-07-03T20:44:23.492Z,11.47
2017-07-03T20:46:55.856Z,12.70
2017-07-03T20:49:28.161Z,12.23
2017-07-03T20:52:00.601Z,10.47
2017-07-03T20:54:33.334Z,16.60
2017-07-03T20:57:05.545Z,12.27
2017-07-03T20:59:37.925Z,9.63
2017-07-03T21:02:10.333Z,8.97
2017-07-03T21:04:42.793Z,11.40
2017-07-03T21:07:15.040Z,11.50
2017-07-03T21:09:47.316Z,12.40
2017-07-03T21:12:19.714Z,9.43
2017-07-03T21:14:52.101Z,13.57
2017-07-03T21:17:24.406Z,11.57
2017-07-03T21:19:56.897Z,8.67
2017-07-03T21:22:29.929Z,10.50
2017-07-03T21:25:02.597Z,14.27
2017-07-03T21:27:34.861Z,11.60
2017-07-03T21:30:07.599Z,12.10
2017-07-03T21:32:39.608Z,13.27
2017-07-03T21:35:12.021Z,13.10
2017-07-03T21:37:44.305Z,13.93
2017-07-03T21:40:16.668Z,13.13
2017-07-03T21:42:49.078Z,11.77
2017-07-03T21:45:21.472Z,17.13
2017-07-03T21:47:54.247Z,15.27
2017-07-03T21:50:26.314Z,14.20
2017-07-03T21:52:58.992Z,11.07
2017-07-03T21:55:31.212Z,12.83
2017-07-03T21:58:03.572Z,13.93
2017-07-03T22:00:36.033Z,11.90
2017-07-03T22:03:08.867Z,14.50
2017-07-03T22:05:40.871Z,16.07
2017-07-03T22:08:13.180Z,11.87
2017-07-03T22:10:45.573Z,15.87
2017-07-03T22:13:17.980Z,12.53
2017-07-03T22:15:50.659Z,14.60
2017-07-03T22:18:23.813Z,18.90
2017-07-03T22:20:56.280Z,12.00
2017-07-03T22:23:28.585Z,16.23
2017-07-03T22:26:01.177Z,12.60
2017-07-03T22:28:33.358Z,15.53
2017-07-03T22:31:05.826Z,20.83
2017-07-03T22:33:38.138Z,18.13
2017-07-03T22:36:10.775Z,13.13
2017-07-03T22:38:43.259Z,17.80
2017-07-03T22:41:15.341Z,19.33
2017-07-03T22:43:47.692Z,15.77
2017-07-03T22:46:20.079Z,15.27
2017-07-03T22:48:52.410Z,23.60
2017-07-03T22:51:24.730Z,15.03
2017-07-03T22:53:57.980Z,13.00
2017-07-03T22:56:30.395Z,18.60
2017-07-03T22:59:03.056Z,17.20
2017-07-03T23:01:35.112Z,17.10
2017-07-03T23:04:07.494Z,20.83
2017-07-03T23:06:39.873Z,16.50
2017-07-03T23:09:12.150Z,24.47
2017-07-03T23:11:44.553Z,20.47
2017-07-03T23:14:16.889Z,16.93
2017-07-03T23:16:49.416Z,15.13
2017-07-03T23:19:21.845Z,23.43
2017-07-03T23:21:54.234Z,23.07
2017-07-03T23:24:26.581Z,19.50
2017-07-03T23:26:58.959Z,23.27
2017-07-03T23:29:31.261Z,21.30
2017-07-03T23:32:03.640Z,19.00
2017-07-03T23:34:35.901Z,24.70
2017-07-03T23:37:08.377Z,17.97
2017-07-03T23:39:40.936Z,16.47
2017-07-03T23:42:13.904Z,17.77
2017-07-03T23:44:46.413Z,20.43
2017-07-03T23:47:18.801Z,25.47
2017-07-03T23:49:51.181Z,22.53
2017-07-03T23:52:24.046Z,17.73
2017-07-03T23:55:03.143Z,18.67
2017-07-03T23:57:36.501Z,21.10
